Thursday, September 20, 2018, 6:43 PM EDT
Back to Local

KTAN, Taunton Municipal Airport

Location: East Taunton, MA, United States Lat: 41.883
Local Time: 6:43 PM EDT (22:43 GMT) Lon: -71.017
Time Zone: US/Eastern Elev: 42 ft

Show me the last for .
Show Decoded

2018-09-20 17:52 METAR KTAN 202152Z AUTO VRB04KT 10SM OVC046 18/14 A3025 RMK AO2 SLP243 T01780139
                 =
2018-09-20 16:52 METAR KTAN 202052Z AUTO 07004KT 10SM FEW037 OVC045 18/14 A3025 RMK AO2 RAE21
                 SLP243 P0000 60001 T01780139 53001 =
2018-09-20 16:00 METAR KTAN 202000Z AUTO VRB03KT 5SM -RA SCT014 SCT021 OVC032 17/14 A3025 RMK AO2
                 P0000 T01720144 =
2018-09-20 15:52 METAR KTAN 201952Z AUTO VRB04KT 3SM -RA BR FEW012 BKN017 OVC045 17/15 A3025 RMK
                 AO2 RAB02 SLP243 P0001 T01720150 =
2018-09-20 15:05 METAR KTAN 201905Z AUTO VRB05KT 7SM -RA SCT017 BKN024 OVC046 18/14 A3025 RMK AO2
                 RAB02 P0000 T01780144 =
2018-09-20 14:52 METAR KTAN 201852Z AUTO 01004KT 10SM FEW023 BKN037 OVC047 18/14 A3024 RMK AO2
                 SLP241 T01830144 =
2018-09-20 13:52 METAR KTAN 201752Z AUTO 02006KT 10SM FEW019 BKN029 OVC036 18/14 A3024 RMK AO2
                 RAE06 SLP241 P0000 60000 T01830139 10189 20161 58000 =
2018-09-20 13:05 METAR KTAN 201705Z AUTO 36006KT 10SM -RA SCT013 BKN019 OVC035 18/15 A3025 RMK
                 AO2 P0000 T01780150 =
2018-09-20 12:52 METAR KTAN 201652Z AUTO 03007KT 010V070 7SM -RA BKN013 BKN020 OVC036 18/14 A3026
                 RMK AO2 RAB40 SLP245 P0000 T01780144 =
2018-09-20 11:52 METAR KTAN 201552Z AUTO 36007KT 320V040 9SM SCT015 BKN026 OVC040 18/14 A3025 RMK
                 AO2 RAB00E18 SLP245 P0000 T01830144 =
2018-09-20 11:01 METAR KTAN 201501Z AUTO VRB06KT 4SM -RA FEW014 BKN026 OVC031 18/15 A3025 RMK AO2
                 RAB00 P0000 T01780150 =
2018-09-20 10:52 METAR KTAN 201452Z AUTO VRB06KT 10SM SCT020 BKN030 OVC036 18/15 A3025 RMK AO2
                 RAB10E24 SLP242 P0000 60000 T01830150 51022 =
2018-09-20 09:52 METAR KTAN 201352Z AUTO 01007KT 10SM BKN018 OVC024 18/14 A3022 RMK AO2 SLP234
                 T01780144 =
2018-09-20 09:36 METAR KTAN 201336Z AUTO VRB05KT 10SM BKN016 BKN021 BKN027 18/14 A3022 RMK AO2
                 T01830144 =
2018-09-20 08:52 METAR KTAN 201252Z AUTO VRB05KT 10SM BKN014 BKN019 BKN041 17/14 A3021 RMK AO2
                 SLP229 T01720144 =
2018-09-20 07:52 METAR KTAN 201152Z AUTO VRB03KT 10SM FEW012 OVC039 16/14 A3018 RMK AO2 SLP220
                 T01610144 10161 20144 53021 =
2018-09-20 07:44 METAR KTAN 201144Z AUTO 01003KT 10SM SCT012 BKN040 16/14 A3018 RMK AO2 T01610139
                 =
2018-09-20 07:35 METAR KTAN 201135Z AUTO 01004KT 10SM BKN012 BKN038 16/14 A3018 RMK AO2 T01560139
                 =
2018-09-20 06:52 METAR KTAN 201052Z AUTO 00000KT 10SM BKN042 15/13 A3015 RMK AO2 SLP210 T01500133
                 =
2018-09-20 05:52 METAR KTAN 200952Z AUTO 01003KT 10SM CLR 15/13 A3013 RMK AO2 SLP204 T01500133 =
2018-09-20 04:52 METAR KTAN 200852Z AUTO 35003KT 10SM FEW018 FEW024 15/13 A3012 RMK AO2 SLP199
                 T01500133 53006 =
2018-09-20 03:52 METAR KTAN 200752Z AUTO 33003KT 10SM CLR 14/13 A3011 RMK AO2 SLP197 T01440133 =
2018-09-20 02:52 METAR KTAN 200652Z AUTO 35003KT 10SM FEW017 BKN042 15/13 A3010 RMK AO2 SLP193
                 T01500133 =
2018-09-20 02:30 METAR KTAN 200630Z AUTO 01003KT 10SM SCT018 SCT025 BKN044 15/13 A3010 RMK AO2
                 T01500133 =
2018-09-20 02:22 METAR KTAN 200622Z AUTO 01003KT 10SM SCT018 BKN025 BKN036 15/13 A3010 RMK AO2
                 T01500133 =
2018-09-20 01:52 METAR KTAN 200552Z AUTO 00000KT 10SM SCT019 OVC040 15/13 A3010 RMK AO2 SLP193
                 T01500133 10150 20122 53007 =
2018-09-20 01:14 METAR KTAN 200514Z AUTO 00000KT 10SM FEW020 BKN040 14/13 A3010 RMK AO2 T01440133
                 =
2018-09-20 00:52 METAR KTAN 200452Z AUTO 00000KT 10SM BKN022 BKN028 OVC038 14/13 A3011 RMK AO2
                 SLP195 T01440133 401940122 =
2018-09-20 00:09 METAR KTAN 200409Z AUTO 00000KT 10SM BKN020 BKN027 13/12 A3008 RMK AO2 T01280117
                 =
2018-09-19 23:52 METAR KTAN 200352Z AUTO 00000KT 10SM SCT027 13/12 A3007 RMK AO2 SLP182 T01280117
                 =
2018-09-19 23:17 METAR KTAN 200317Z AUTO 00000KT 10SM BKN030 14/13 A3007 RMK AO2 T01390128 =
2018-09-19 22:52 METAR KTAN 200252Z AUTO 00000KT 10SM BKN026 BKN030 14/12 A3008 RMK AO2 SLP186
                 T01390122 51008 =
2018-09-19 22:49 METAR KTAN 200249Z AUTO 00000KT 10SM BKN026 13/12 A3008 RMK AO2 =
2018-09-19 21:52 METAR KTAN 200152Z AUTO 00000KT 10SM CLR 13/12 A3007 RMK AO2 SLP181 T01330122 =
2018-09-19 20:52 METAR KTAN 200052Z AUTO 05003KT 10SM CLR 14/13 A3006 RMK AO2 SLP178 T01390128 =
2018-09-19 19:52 METAR KTAN 192352Z AUTO 00000KT 10SM CLR 15/13 A3005 RMK AO2 SLP176 T01500128
                 10189 20150 51023 =
2018-09-19 19:20 METAR KTAN 192320Z AUTO VRB04KT 10SM SCT018 BKN050 16/13 A3003 RMK AO2 T01560128
                 =
2018-09-19 18:52 METAR KTAN 192252Z AUTO VRB05KT 10SM OVC018 16/13 A3004 RMK AO2 SLP171 T01610133
                 =

Support USWX by starting your Amazon purchase here.